createdAt,value
2022-11-28T00:01:34.327Z,98071.71
2022-11-28T00:04:02.723Z,98070.48
2022-11-28T00:06:30.802Z,98070.85
2022-11-28T00:08:59.396Z,98071.48
2022-11-28T00:11:27.689Z,98068.33
2022-11-28T00:13:55.927Z,98066.80
2022-11-28T00:16:24.530Z,98062.73
2022-11-28T00:18:54.538Z,98061.35
2022-11-28T00:21:24.824Z,98059.25
2022-11-28T00:23:52.720Z,98056.95
2022-11-28T00:26:22.255Z,98058.59
2022-11-28T00:28:49.935Z,98057.13
2022-11-28T00:31:21.930Z,98057.52
2022-11-28T00:33:50.587Z,98059.58
2022-11-28T00:36:18.744Z,98060.30
2022-11-28T00:38:46.562Z,98059.38
2022-11-28T00:41:15.904Z,98057.28
2022-11-28T00:43:44.374Z,98058.44
2022-11-28T00:46:13.308Z,98057.34
2022-11-28T00:48:41.237Z,98058.25
2022-11-28T00:51:12.461Z,98060.21
2022-11-28T00:53:42.560Z,98061.08
2022-11-28T00:56:11.776Z,98060.38
2022-11-28T00:58:40.043Z,98055.83
2022-11-28T01:01:28.143Z,98050.69
2022-11-28T01:03:57.263Z,98052.24
2022-11-28T01:06:30.452Z,98050.54
2022-11-28T01:08:59.337Z,98049.82
2022-11-28T01:11:27.575Z,98044.96
2022-11-28T01:13:56.227Z,98043.20
2022-11-28T01:16:24.000Z,98040.17
2022-11-28T01:18:51.743Z,98038.02
2022-11-28T01:21:20.231Z,98038.34
2022-11-28T01:23:48.509Z,98033.75
2022-11-28T01:26:17.795Z,98028.98
2022-11-28T01:28:46.094Z,98026.15
2022-11-28T01:31:15.495Z,98022.47
2022-11-28T01:33:43.472Z,98023.18
2022-11-28T01:36:12.118Z,98026.39
2022-11-28T01:38:39.988Z,98025.29
2022-11-28T01:41:08.438Z,98023.82
2022-11-28T01:43:36.506Z,98026.54
2022-11-28T01:46:05.020Z,98025.20
2022-11-28T01:48:34.982Z,98026.04
2022-11-28T01:51:06.534Z,98026.15
2022-11-28T01:53:36.578Z,98025.17
2022-11-28T01:56:14.132Z,98027.43
2022-11-28T01:58:44.381Z,98026.55
2022-11-28T02:01:12.988Z,98026.46
2022-11-28T02:03:45.381Z,98024.04
2022-11-28T02:06:14.198Z,98025.55
2022-11-28T02:08:42.270Z,98019.40
2022-11-28T02:11:13.119Z,98012.77
2022-11-28T02:13:49.843Z,98009.34
2022-11-28T02:16:20.451Z,98007.36
2022-11-28T02:18:51.245Z,98005.34
2022-11-28T02:21:25.107Z,98005.98
2022-11-28T02:24:02.337Z,98007.23
2022-11-28T02:26:30.164Z,98007.55
2022-11-28T02:28:57.988Z,98008.00
2022-11-28T02:31:28.991Z,98006.95
2022-11-28T02:34:10.039Z,98004.13
2022-11-28T02:37:00.700Z,98004.54
2022-11-28T02:39:35.341Z,98006.50
2022-11-28T02:42:15.760Z,98007.64
2022-11-28T02:44:47.820Z,98009.05
2022-11-28T02:47:22.202Z,98007.88
2022-11-28T02:49:55.978Z,98007.90
2022-11-28T02:52:34.643Z,98005.83
2022-11-28T02:55:03.539Z,98009.30
2022-11-28T02:57:36.366Z,98009.80
2022-11-28T03:00:22.883Z,98009.20
2022-11-28T03:03:10.849Z,98009.00
2022-11-28T03:05:47.773Z,98006.40
2022-11-28T03:08:15.426Z,98006.63
2022-11-28T03:11:01.295Z,98004.31
2022-11-28T03:13:44.429Z,98001.33
2022-11-28T03:16:25.918Z,98001.75
2022-11-28T03:19:04.762Z,98001.16
2022-11-28T03:21:35.543Z,97999.02
2022-11-28T03:24:06.531Z,97997.89
2022-11-28T03:26:44.791Z,97995.27
2022-11-28T03:29:16.791Z,97996.15
2022-11-28T03:32:03.560Z,97993.50
2022-11-28T03:34:32.889Z,97993.81
2022-11-28T03:37:03.191Z,97994.29
2022-11-28T03:39:34.205Z,97993.20
2022-11-28T03:42:05.822Z,97988.95
2022-11-28T03:44:38.355Z,97986.71
2022-11-28T03:47:06.650Z,97983.31
2022-11-28T03:49:36.925Z,97982.71
2022-11-28T03:52:06.109Z,97980.86
2022-11-28T03:54:53.366Z,97983.12
2022-11-28T03:57:21.031Z,97984.48
2022-11-28T03:59:53.163Z,97988.52
2022-11-28T04:02:27.012Z,97987.91
2022-11-28T04:05:13.518Z,97988.96
2022-11-28T04:07:41.313Z,97989.27
2022-11-28T04:10:27.226Z,97990.55
2022-11-28T04:12:58.899Z,97993.57
2022-11-28T04:15:29.690Z,97994.66
2022-11-28T04:18:03.558Z,97991.67
2022-11-28T04:20:54.532Z,97993.85
2022-11-28T04:23:22.558Z,97991.64
2022-11-28T04:25:57.824Z,97989.26
2022-11-28T04:28:27.323Z,97992.21
2022-11-28T04:30:56.663Z,97993.13
2022-11-28T04:33:25.902Z,97990.31
2022-11-28T04:35:54.748Z,97991.77
2022-11-28T04:38:24.038Z,97988.57
2022-11-28T04:40:53.737Z,97986.76
2022-11-28T04:43:25.722Z,97991.31
2022-11-28T04:45:56.224Z,97991.34
2022-11-28T04:48:24.082Z,97991.95
2022-11-28T04:51:09.605Z,97993.98
2022-11-28T04:53:43.749Z,97994.02
2022-11-28T04:56:20.146Z,97992.02
2022-11-28T04:58:49.631Z,97995.39
2022-11-28T05:01:29.076Z,97993.46
2022-11-28T05:03:57.138Z,97995.91
2022-11-28T05:06:26.761Z,97994.89
2022-11-28T05:08:54.511Z,97998.12
2022-11-28T05:11:22.653Z,97997.55
2022-11-28T05:13:50.446Z,97999.79
2022-11-28T05:16:18.638Z,98000.00
2022-11-28T05:18:46.355Z,98001.36
2022-11-28T05:21:14.320Z,98005.30
2022-11-28T05:23:43.578Z,98005.75
2022-11-28T05:26:12.738Z,98007.38
2022-11-28T05:28:42.813Z,98007.95
2022-11-28T05:31:10.749Z,98010.69
2022-11-28T05:33:39.012Z,98011.51
2022-11-28T05:36:12.561Z,98011.84
2022-11-28T05:38:42.119Z,98009.17
2022-11-28T05:41:10.614Z,98010.20
2022-11-28T05:43:38.362Z,98010.80
2022-11-28T05:46:06.856Z,98012.55
2022-11-28T05:48:35.529Z,98014.95
2022-11-28T05:51:07.199Z,98014.06
2022-11-28T05:53:35.012Z,98015.75
2022-11-28T05:56:09.382Z,98014.78
2022-11-28T05:58:37.250Z,98016.16
2022-11-28T06:01:12.244Z,98011.33
2022-11-28T06:03:40.271Z,98010.27
2022-11-28T06:06:12.620Z,98010.56
2022-11-28T06:08:41.052Z,98010.95
2022-11-28T06:11:09.005Z,98009.34
2022-11-28T06:13:36.851Z,98009.42
2022-11-28T06:16:08.801Z,98002.77
2022-11-28T06:18:36.790Z,98006.59
2022-11-28T06:21:05.339Z,98005.19
2022-11-28T06:23:33.176Z,98002.10
2022-11-28T06:26:08.328Z,98002.93
2022-11-28T06:28:36.348Z,98004.87
2022-11-28T06:31:04.269Z,98007.33
2022-11-28T06:33:32.020Z,98005.36
2022-11-28T06:36:01.409Z,98008.68
2022-11-28T06:38:29.261Z,98008.77
2022-11-28T06:40:58.435Z,98008.93
2022-11-28T06:43:26.700Z,98007.90
2022-11-28T06:45:54.437Z,98007.85
2022-11-28T06:48:22.237Z,98008.32
2022-11-28T06:50:50.453Z,98007.93
2022-11-28T06:53:18.467Z,98007.70
2022-11-28T06:55:46.614Z,98008.05
2022-11-28T06:58:14.308Z,98009.43
2022-11-28T07:00:42.232Z,98007.41
2022-11-28T07:03:10.455Z,98010.20
2022-11-28T07:05:38.691Z,98008.48
2022-11-28T07:08:06.816Z,98008.02
2022-11-28T07:10:34.610Z,98006.81
2022-11-28T07:13:05.399Z,98004.64
2022-11-28T07:15:33.546Z,98001.48
2022-11-28T07:18:01.289Z,98001.64
2022-11-28T07:20:29.091Z,98001.60
2022-11-28T07:22:56.871Z,98003.48
2022-11-28T07:25:24.566Z,98000.89
2022-11-28T07:27:52.433Z,97994.98
2022-11-28T07:30:20.301Z,97997.12
2022-11-28T07:32:48.039Z,97992.87
2022-11-28T07:35:15.913Z,97993.91
2022-11-28T07:37:43.687Z,97996.67
2022-11-28T07:40:13.595Z,97996.14
2022-11-28T07:42:41.394Z,97993.92
2022-11-28T07:45:09.633Z,97990.89
2022-11-28T07:47:37.496Z,97989.35
2022-11-28T07:50:05.729Z,97989.82
2022-11-28T07:52:33.579Z,97989.57
2022-11-28T07:55:01.531Z,97991.01
2022-11-28T07:57:30.815Z,97990.73
2022-11-28T07:59:58.646Z,97984.59
2022-11-28T08:02:27.352Z,97984.57
2022-11-28T08:04:55.732Z,97980.87
2022-11-28T08:07:23.764Z,97980.05
2022-11-28T08:09:51.572Z,97982.21
2022-11-28T08:12:19.675Z,97980.89
2022-11-28T08:14:47.663Z,97970.48
2022-11-28T08:17:15.353Z,97967.94
2022-11-28T08:19:43.093Z,97960.45
2022-11-28T08:22:10.767Z,97964.45
2022-11-28T08:24:38.517Z,97963.26
2022-11-28T08:27:06.225Z,97963.10
2022-11-28T08:29:33.944Z,97962.52
2022-11-28T08:32:01.896Z,97961.52
2022-11-28T08:34:29.774Z,97959.09
2022-11-28T08:36:57.513Z,97955.54
2022-11-28T08:39:25.657Z,97950.11
2022-11-28T08:41:57.374Z,97948.92
2022-11-28T08:44:26.467Z,97949.43
2022-11-28T08:46:55.129Z,97948.39
2022-11-28T08:49:22.875Z,97941.96
2022-11-28T08:51:50.571Z,97941.04
2022-11-28T08:54:18.203Z,97939.08
2022-11-28T08:56:47.297Z,97934.23
2022-11-28T08:59:15.181Z,97930.62
2022-11-28T09:01:43.155Z,97926.84
2022-11-28T09:04:11.047Z,97923.71
2022-11-28T09:06:39.484Z,97918.14
2022-11-28T09:09:08.227Z,97912.59
2022-11-28T09:11:36.223Z,97910.85
2022-11-28T09:14:03.934Z,97909.00
2022-11-28T09:16:31.742Z,97905.88
2022-11-28T09:18:59.585Z,97898.74
2022-11-28T09:21:27.400Z,97893.07
2022-11-28T09:23:56.267Z,97890.38
2022-11-28T09:26:25.431Z,97886.81
2022-11-28T09:28:53.752Z,97885.87
2022-11-28T09:31:21.854Z,97883.16
2022-11-28T09:33:49.769Z,97882.54
2022-11-28T09:36:18.940Z,97875.46
2022-11-28T09:38:46.718Z,97873.05
2022-11-28T09:41:20.595Z,97869.92
2022-11-28T09:43:54.568Z,97867.10
2022-11-28T09:46:28.440Z,97861.75
2022-11-28T09:48:58.254Z,97856.70
2022-11-28T09:51:35.551Z,97856.26
2022-11-28T09:54:03.257Z,97857.61
2022-11-28T09:56:30.943Z,97857.27
2022-11-28T09:59:03.024Z,97858.69
2022-11-28T10:01:34.497Z,97859.49
2022-11-28T10:04:05.519Z,97855.42
2022-11-28T10:06:52.118Z,97856.73
2022-11-28T10:09:33.265Z,97853.40
2022-11-28T10:12:06.794Z,97852.17
2022-11-28T10:14:46.927Z,97848.91
2022-11-28T10:17:29.959Z,97843.53
2022-11-28T10:20:02.658Z,97841.64
2022-11-28T10:22:39.819Z,97839.18
2022-11-28T10:25:14.283Z,97838.08
2022-11-28T10:27:42.617Z,97833.74
2022-11-28T10:30:22.663Z,97833.43
2022-11-28T10:32:53.757Z,97830.14
2022-11-28T10:35:26.749Z,97831.61
2022-11-28T10:37:56.339Z,97831.78
2022-11-28T10:40:39.563Z,97831.39
2022-11-28T10:43:16.311Z,97828.41
2022-11-28T10:46:00.787Z,97825.09
2022-11-28T10:48:43.773Z,97823.89
2022-11-28T10:51:30.875Z,97819.73
2022-11-28T10:54:16.492Z,97817.15
2022-11-28T10:56:50.208Z,97820.67
2022-11-28T10:59:23.827Z,97821.10
2022-11-28T11:01:52.416Z,97816.96
2022-11-28T11:04:22.593Z,97816.64
2022-11-28T11:07:08.241Z,97811.33
2022-11-28T11:09:39.080Z,97808.77
2022-11-28T11:12:12.156Z,97806.46
2022-11-28T11:14:40.010Z,97809.83
2022-11-28T11:17:07.694Z,97810.71
2022-11-28T11:19:36.616Z,97812.20
2022-11-28T11:22:22.131Z,97809.55
2022-11-28T11:25:24.816Z,97808.20
2022-11-28T11:27:54.483Z,97809.98
2022-11-28T11:30:27.118Z,97807.44
2022-11-28T11:32:56.371Z,97804.73
2022-11-28T11:35:25.624Z,97806.91
2022-11-28T11:37:53.739Z,97806.02
2022-11-28T11:40:25.262Z,97803.52
2022-11-28T11:42:55.593Z,97800.37
2022-11-28T11:45:24.227Z,97799.55
2022-11-28T11:47:51.922Z,97799.45
2022-11-28T11:50:21.568Z,97797.47
2022-11-28T11:53:01.351Z,97797.23
2022-11-28T11:55:30.434Z,97797.99
2022-11-28T11:58:05.248Z,97796.05
2022-11-28T12:00:39.091Z,97796.22
2022-11-28T12:03:14.260Z,97801.37
2022-11-28T12:06:12.864Z,97801.13
2022-11-28T12:08:41.062Z,97799.98
2022-11-28T12:11:20.047Z,97800.21
2022-11-28T12:13:48.912Z,97800.47
2022-11-28T12:16:34.781Z,97799.87
2022-11-28T12:19:02.577Z,97802.28
2022-11-28T12:21:50.582Z,97802.22
2022-11-28T12:24:25.513Z,97801.80
2022-11-28T12:26:56.380Z,97803.61
2022-11-28T12:29:33.246Z,97804.21
2022-11-28T12:32:07.109Z,97804.27
2022-11-28T12:34:53.127Z,97804.84
2022-11-28T12:38:09.155Z,97801.77
2022-11-28T12:40:46.024Z,97801.27
2022-11-28T12:43:19.971Z,97800.15
2022-11-28T12:46:05.500Z,97800.41
2022-11-28T12:48:50.188Z,97795.90
2022-11-28T12:51:20.953Z,97794.75
2022-11-28T12:53:56.224Z,97794.90
2022-11-28T12:56:23.897Z,97799.28
2022-11-28T12:58:55.620Z,97798.77
2022-11-28T13:01:23.397Z,97796.16
2022-11-28T13:03:51.146Z,97800.52
2022-11-28T13:06:36.811Z,97800.94
2022-11-28T13:09:18.795Z,97803.33
2022-11-28T13:12:01.521Z,97803.90
2022-11-28T13:14:36.388Z,97801.45
2022-11-28T13:17:13.556Z,97801.89
2022-11-28T13:20:00.092Z,97802.65
2022-11-28T13:22:34.189Z,97800.52
2022-11-28T13:25:16.956Z,97798.27
2022-11-28T13:27:49.742Z,97801.23
2022-11-28T13:30:25.541Z,97800.48
2022-11-28T13:32:59.524Z,97801.63
2022-11-28T13:35:28.570Z,97800.30
2022-11-28T13:41:05.790Z,97801.55
2022-11-28T13:43:46.925Z,97798.84
2022-11-28T13:46:15.032Z,97800.36
2022-11-28T13:51:33.075Z,97805.16
2022-11-28T13:54:23.059Z,97802.21
2022-11-28T13:57:09.763Z,97803.33
2022-11-28T13:59:38.087Z,97803.09
2022-11-28T14:02:18.798Z,97802.27
2022-11-28T14:04:48.215Z,97803.73
2022-11-28T14:07:22.501Z,97807.97
2022-11-28T14:09:52.231Z,97805.05
2022-11-28T14:12:34.242Z,97804.83
2022-11-28T14:15:01.990Z,97805.67
2022-11-28T14:17:33.263Z,97800.02
2022-11-28T14:20:01.026Z,97801.17
2022-11-28T14:22:49.037Z,97798.50
2022-11-28T14:25:31.652Z,97799.48
2022-11-28T14:28:04.417Z,97800.23
2022-11-28T14:30:40.000Z,97803.55
2022-11-28T14:33:15.932Z,97801.52
2022-11-28T14:35:53.074Z,97801.98
2022-11-28T14:38:35.865Z,97798.71
2022-11-28T14:41:09.340Z,97801.80
2022-11-28T14:43:37.121Z,97801.35
2022-11-28T14:46:24.080Z,97799.79
2022-11-28T14:48:57.979Z,97795.01
2022-11-28T14:51:44.232Z,97789.57
2022-11-28T14:54:22.034Z,97790.13
2022-11-28T14:56:52.963Z,97793.73
2022-11-28T14:59:29.148Z,97793.81
2022-11-28T15:02:06.228Z,97788.64
2022-11-28T15:04:52.562Z,97787.83
2022-11-28T15:07:29.546Z,97786.85
2022-11-28T15:10:07.457Z,97790.18
2022-11-28T15:12:54.215Z,97791.11
2022-11-28T15:15:22.755Z,97791.89
2022-11-28T15:17:51.604Z,97792.37
2022-11-28T15:20:23.122Z,97792.15
2022-11-28T15:22:50.980Z,97792.40
2022-11-28T15:25:19.967Z,97792.69
2022-11-28T15:27:48.059Z,97792.23
2022-11-28T15:30:20.043Z,97792.93
2022-11-28T15:32:48.111Z,97790.83
2022-11-28T15:35:17.754Z,97790.45
2022-11-28T15:37:50.433Z,97789.19
2022-11-28T15:40:21.253Z,97787.23
2022-11-28T15:42:49.616Z,97784.11
2022-11-28T15:45:20.370Z,97787.69
2022-11-28T15:47:49.269Z,97786.98
2022-11-28T15:50:20.060Z,97792.36
2022-11-28T15:52:59.855Z,97792.04
2022-11-28T15:55:32.200Z,97788.97
2022-11-28T15:58:10.250Z,97791.77
2022-11-28T16:00:39.653Z,97784.06
2022-11-28T16:03:10.498Z,97785.03
2022-11-28T16:05:39.026Z,97789.48
2022-11-28T16:08:17.148Z,97789.60
2022-11-28T16:10:45.624Z,97789.77
2022-11-28T16:13:16.292Z,97789.33
2022-11-28T16:15:51.657Z,97785.61
2022-11-28T16:18:19.759Z,97786.48
2022-11-28T16:20:48.141Z,97787.39
2022-11-28T16:23:35.981Z,97787.38
2022-11-28T16:26:05.364Z,97790.69
2022-11-28T16:28:34.768Z,97792.74
2022-11-28T16:31:02.682Z,97792.14
2022-11-28T16:33:41.039Z,97795.37
2022-11-28T16:36:08.814Z,97795.31
2022-11-28T16:38:37.914Z,97798.84
2022-11-28T16:41:05.827Z,97799.79
2022-11-28T16:43:38.410Z,97801.78
2022-11-28T16:46:08.684Z,97802.48
2022-11-28T16:48:37.807Z,97806.13
2022-11-28T16:51:11.704Z,97807.48
2022-11-28T16:53:46.469Z,97805.31
2022-11-28T16:56:29.806Z,97803.84
2022-11-28T16:59:14.231Z,97800.31
2022-11-28T17:01:49.248Z,97798.67
2022-11-28T17:04:20.438Z,97800.37
2022-11-28T17:06:48.408Z,97798.21
2022-11-28T17:09:16.320Z,97801.67
2022-11-28T17:11:45.544Z,97803.52
2022-11-28T17:14:14.126Z,97805.94
2022-11-28T17:16:42.446Z,97810.39
2022-11-28T17:19:10.418Z,97806.73
2022-11-28T17:21:40.111Z,97804.91
2022-11-28T17:24:14.975Z,97806.21
2022-11-28T17:26:42.818Z,97806.44
2022-11-28T17:29:11.814Z,97807.30
2022-11-28T17:31:42.719Z,97809.90
2022-11-28T17:34:33.589Z,97810.52
2022-11-28T17:37:02.087Z,97813.65
2022-11-28T17:39:29.881Z,97814.50
2022-11-28T17:41:59.061Z,97813.30
2022-11-28T17:44:36.341Z,97811.09
2022-11-28T17:47:04.336Z,97809.32
2022-11-28T17:49:32.282Z,97805.85
2022-11-28T17:51:59.943Z,97802.21
2022-11-28T17:54:27.844Z,97804.47
2022-11-28T17:56:55.708Z,97805.80
2022-11-28T17:59:23.937Z,97805.73
2022-11-28T18:01:51.894Z,97808.56
2022-11-28T18:04:19.740Z,97806.98
2022-11-28T18:06:48.471Z,97806.27
2022-11-28T18:09:16.262Z,97807.08
2022-11-28T18:11:46.300Z,97807.10
2022-11-28T18:14:14.176Z,97811.35
2022-11-28T18:16:43.893Z,97808.92
2022-11-28T18:19:11.781Z,97810.07
2022-11-28T18:21:39.530Z,97810.67
2022-11-28T18:24:07.511Z,97809.40
2022-11-28T18:26:36.644Z,97808.70
2022-11-28T18:29:04.644Z,97811.60
2022-11-28T18:31:34.251Z,97806.21
2022-11-28T18:34:03.500Z,97806.29
2022-11-28T18:36:32.310Z,97804.48
2022-11-28T18:39:01.718Z,97804.95
2022-11-28T18:41:29.908Z,97803.48
2022-11-28T18:43:59.244Z,97804.96
2022-11-28T18:46:27.649Z,97805.23
2022-11-28T18:48:55.603Z,97809.10
2022-11-28T18:51:27.759Z,97810.20
2022-11-28T18:53:56.214Z,97812.67
2022-11-28T18:56:24.976Z,97812.19
2022-11-28T18:58:53.630Z,97812.05
2022-11-28T19:01:28.314Z,97815.13
2022-11-28T19:03:58.148Z,97814.45
2022-11-28T19:06:26.378Z,97815.83
2022-11-28T19:08:58.766Z,97812.67
2022-11-28T19:11:28.423Z,97810.17
2022-11-28T19:13:56.688Z,97809.56
2022-11-28T19:16:26.169Z,97809.33
2022-11-28T19:18:54.077Z,97807.67
2022-11-28T19:21:23.379Z,97804.48
2022-11-28T19:23:51.620Z,97803.04
2022-11-28T19:26:20.567Z,97805.33
2022-11-28T19:28:48.366Z,97803.98
2022-11-28T19:31:20.526Z,97806.02
2022-11-28T19:34:00.871Z,97807.17
2022-11-28T19:36:30.296Z,97812.24
2022-11-28T19:38:59.253Z,97813.00
2022-11-28T19:41:27.567Z,97812.60
2022-11-28T19:43:55.897Z,97814.23
2022-11-28T19:46:23.763Z,97814.61
2022-11-28T19:48:51.871Z,97816.15
2022-11-28T19:51:20.536Z,97816.38
2022-11-28T19:53:48.555Z,97816.14
2022-11-28T19:56:17.551Z,97814.91
2022-11-28T19:58:46.311Z,97815.66
2022-11-28T20:01:15.434Z,97815.20
2022-11-28T20:03:44.093Z,97817.38
2022-11-28T20:06:13.557Z,97814.03
2022-11-28T20:08:41.554Z,97812.80
2022-11-28T20:11:17.086Z,97811.27
2022-11-28T20:13:45.394Z,97814.96
2022-11-28T20:16:14.321Z,97817.54
2022-11-28T20:18:43.158Z,97817.41
2022-11-28T20:21:15.182Z,97817.50
2022-11-28T20:23:42.901Z,97818.48
2022-11-28T20:26:11.104Z,97816.02
2022-11-28T20:28:39.640Z,97819.76
2022-11-28T20:31:15.583Z,97823.44
2022-11-28T20:33:43.480Z,97822.23
2022-11-28T20:36:15.709Z,97819.53
2022-11-28T20:38:43.549Z,97823.38
2022-11-28T20:41:12.239Z,97821.37
2022-11-28T20:43:40.792Z,97821.70
2022-11-28T20:46:13.416Z,97822.45
2022-11-28T20:48:42.293Z,97824.17
2022-11-28T20:51:20.520Z,97822.89
2022-11-28T20:53:48.980Z,97822.62
2022-11-28T20:56:20.981Z,97822.23
2022-11-28T20:58:49.208Z,97824.74
2022-11-28T21:01:18.624Z,97821.73
2022-11-28T21:03:46.591Z,97821.45
2022-11-28T21:06:14.269Z,97820.88
2022-11-28T21:08:42.272Z,97822.36
2022-11-28T21:11:25.271Z,97825.30
2022-11-28T21:14:00.843Z,97824.30
2022-11-28T21:16:31.321Z,97821.42
2022-11-28T21:19:01.951Z,97818.13
2022-11-28T21:21:31.077Z,97816.09
2022-11-28T21:24:00.635Z,97817.94
2022-11-28T21:26:30.557Z,97818.80
2022-11-28T21:29:01.012Z,97818.00
2022-11-28T21:31:31.256Z,97815.36
2022-11-28T21:33:59.778Z,97814.62
2022-11-28T21:36:28.893Z,97814.59
2022-11-28T21:38:58.155Z,97815.77
2022-11-28T21:41:30.530Z,97818.80
2022-11-28T21:43:59.119Z,97817.98
2022-11-28T21:46:27.382Z,97815.86
2022-11-28T21:48:55.108Z,97816.14
2022-11-28T21:51:24.200Z,97818.04
2022-11-28T21:53:52.369Z,97817.77
2022-11-28T21:56:22.038Z,97816.18
2022-11-28T21:58:49.871Z,97817.33
2022-11-28T22:01:18.101Z,97814.96
2022-11-28T22:03:45.857Z,97813.15
2022-11-28T22:06:21.917Z,97812.84
2022-11-28T22:08:50.235Z,97815.55
2022-11-28T22:11:18.920Z,97813.48
2022-11-28T22:13:47.257Z,97813.48
2022-11-28T22:16:19.478Z,97812.63
2022-11-28T22:18:47.735Z,97810.52
2022-11-28T22:24:04.448Z,97812.53
2022-11-28T22:26:32.349Z,97809.88
2022-11-28T22:29:01.157Z,97808.68
2022-11-28T22:31:29.220Z,97809.79
2022-11-28T22:33:57.336Z,97807.47
2022-11-28T22:36:25.090Z,97802.80
2022-11-28T22:38:57.115Z,97801.22
2022-11-28T22:41:28.812Z,97800.59
2022-11-28T22:43:59.600Z,97795.52
2022-11-28T22:46:28.029Z,97795.63
2022-11-28T22:48:55.874Z,97797.20
2022-11-28T22:51:25.025Z,97798.94
2022-11-28T22:53:56.584Z,97795.22
2022-11-28T22:56:24.412Z,97795.24
2022-11-28T22:58:52.821Z,97797.38
2022-11-28T23:01:31.059Z,97800.30
2022-11-28T23:03:59.507Z,97800.20
2022-11-28T23:06:28.833Z,97800.84
2022-11-28T23:08:57.630Z,97798.77
2022-11-28T23:11:26.915Z,97796.89
2022-11-28T23:13:55.315Z,97794.77
2022-11-28T23:16:27.445Z,97793.91
2022-11-28T23:18:56.877Z,97792.39
2022-11-28T23:21:25.908Z,97791.61
2022-11-28T23:23:53.850Z,97789.94
2022-11-28T23:26:22.750Z,97792.05
2022-11-28T23:28:51.189Z,97795.50
2022-11-28T23:31:20.895Z,97795.27
2022-11-28T23:33:49.152Z,97795.32
2022-11-28T23:36:18.767Z,97794.52
2022-11-28T23:38:47.761Z,97793.94
2022-11-28T23:41:15.561Z,97792.33
2022-11-28T23:43:43.288Z,97793.17
2022-11-28T23:46:12.000Z,97791.23
2022-11-28T23:48:40.074Z,97789.62
2022-11-28T23:51:08.495Z,97791.41
2022-11-28T23:53:36.579Z,97790.08
2022-11-28T23:56:15.118Z,97792.44
2022-11-28T23:58:43.567Z,97794.96
